X  Schlie├čen METAR Luftfahrt Wetterdaten     EHKD De Kooy Airport
Temperatur
11°C Temperatur
10°C Taupunkt
94% Feuchtigkeit



Wind
11 KM/S
7 MPS
3 M/S
6 KTS



180°
S
Aktuelle Wetterlage

Klar Klar
Luftdruck 1005.76 (hPa) - 29.7 (inHg)
Sichtweite 6 (Meile) - 9.7 (Km)
Flughafen
Flughafen Code EHKD

Position : De Kooy Airport
Entfernung: 34 (Km)

Metar:
EHKD 162355Z AUTO 18006KT 9999 NCD 11/10 Q1006 BLU

Zeit: 17-06-2024 01:55 CEST